createdAt,value
2022-08-07T00:01:43.651Z,95108.66
2022-08-07T00:04:24.786Z,95107.73
2022-08-07T00:07:01.410Z,95110.75
2022-08-07T00:09:35.833Z,95113.44
2022-08-07T00:12:06.710Z,95116.28
2022-08-07T00:14:44.223Z,95121.80
2022-08-07T00:17:14.794Z,95112.77
2022-08-07T00:20:01.561Z,95111.20
2022-08-07T00:22:24.429Z,95108.06
2022-08-07T00:24:59.984Z,95111.15
2022-08-07T00:27:51.933Z,95116.43
2022-08-07T00:30:26.423Z,95117.16
2022-08-07T00:32:48.177Z,95120.14
2022-08-07T00:35:23.846Z,95129.80
2022-08-07T00:37:54.601Z,95121.98
2022-08-07T00:40:39.859Z,95121.88
2022-08-07T00:42:58.037Z,95122.18
2022-08-07T00:45:28.954Z,95117.98
2022-08-07T00:48:09.626Z,95117.20
2022-08-07T00:50:46.256Z,95111.42
2022-08-07T00:53:09.183Z,95114.25
2022-08-07T00:56:03.325Z,95121.19
2022-08-07T00:58:12.869Z,95122.71
2022-08-07T01:00:53.823Z,95128.35
2022-08-07T01:03:56.941Z,95128.91
2022-08-07T01:05:59.763Z,95130.02
2022-08-07T01:08:32.348Z,95130.36
2022-08-07T01:12:05.005Z,95120.31
2022-08-07T01:13:36.421Z,95116.49
2022-08-07T01:16:11.809Z,95119.41
2022-08-07T01:18:44.365Z,95110.70
2022-08-07T01:21:22.756Z,95135.25
2022-08-07T01:23:51.705Z,95138.36
2022-08-07T01:26:26.081Z,95138.45
2022-08-07T01:29:01.078Z,95134.84
2022-08-07T01:31:41.532Z,95133.03
2022-08-07T01:34:08.973Z,95133.73
2022-08-07T01:36:57.575Z,95139.92
2022-08-07T01:39:14.770Z,95139.21
2022-08-07T01:42:07.403Z,95138.31
2022-08-07T01:44:34.873Z,95141.03
2022-08-07T01:48:16.632Z,95140.70
2022-08-07T01:49:38.104Z,95152.13
2022-08-07T01:52:13.285Z,95160.62
2022-08-07T01:54:46.525Z,95172.01
2022-08-07T01:57:28.939Z,95190.13
2022-08-07T02:00:13.011Z,95214.91
2022-08-07T02:03:12.483Z,95233.19
2022-08-07T02:05:59.408Z,95219.11
2022-08-07T02:08:24.585Z,95227.02
2022-08-07T02:10:57.910Z,95227.81
2022-08-07T02:13:57.697Z,95234.38
2022-08-07T02:16:04.413Z,95234.53
2022-08-07T02:18:46.830Z,95235.74
2022-08-07T02:21:16.206Z,95238.59
2022-08-07T02:23:49.315Z,95239.20
2022-08-07T02:26:32.538Z,95172.75
2022-08-07T02:28:50.929Z,95227.20
2022-08-07T02:31:29.120Z,95201.41
2022-08-07T02:34:03.241Z,95193.56
2022-08-07T02:36:32.808Z,95187.78
2022-08-07T02:39:00.731Z,95182.34
2022-08-07T02:45:59.001Z,95161.15
2022-08-07T02:48:28.943Z,95149.48
2022-08-07T02:51:42.073Z,95156.13
2022-08-07T02:57:48.932Z,95150.33
2022-08-07T03:06:34.665Z,95147.38
2022-08-07T03:15:47.905Z,95139.23
2022-08-07T03:18:20.197Z,95138.86
2022-08-07T03:20:52.540Z,95081.84
2022-08-07T03:23:33.425Z,95146.85
2022-08-07T03:25:58.395Z,95154.71
2022-08-07T03:28:37.729Z,95158.69
2022-08-07T03:31:43.308Z,95156.03
2022-08-07T03:34:18.566Z,95155.88
2022-08-07T03:36:51.886Z,95157.16
2022-08-07T03:42:55.914Z,95151.23
2022-08-07T03:45:30.719Z,95146.68
2022-08-07T03:47:58.439Z,95153.56
2022-08-07T03:50:32.211Z,95105.72
2022-08-07T03:53:06.969Z,95167.44
2022-08-07T03:56:04.433Z,95175.10
2022-08-07T03:59:08.009Z,95176.34
2022-08-07T04:01:07.485Z,95173.77
2022-08-07T04:03:53.320Z,95176.19
2022-08-07T04:06:37.830Z,95170.37
2022-08-07T04:08:51.970Z,95173.80
2022-08-07T04:12:27.984Z,95172.16
2022-08-07T04:14:33.257Z,95177.16
2022-08-07T04:16:58.216Z,95172.86
2022-08-07T04:19:50.934Z,95180.55
2022-08-07T04:22:07.801Z,95182.84
2022-08-07T04:24:39.104Z,95188.48
2022-08-07T04:27:20.615Z,95190.77
2022-08-07T04:33:16.807Z,95192.25
2022-08-07T04:35:54.454Z,95204.33
2022-08-07T04:38:28.261Z,95206.03
2022-08-07T04:41:06.200Z,95205.44
2022-08-07T04:44:12.443Z,95202.61
2022-08-07T04:47:10.274Z,95206.28
2022-08-07T04:49:57.783Z,95202.98
2022-08-07T04:52:51.281Z,95200.53
2022-08-07T04:58:12.097Z,95198.59
2022-08-07T05:01:33.852Z,95210.81
2022-08-07T05:04:17.808Z,95214.45
2022-08-07T05:24:11.313Z,95229.31
2022-08-07T05:30:00.310Z,95236.55
2022-08-07T05:32:39.077Z,95230.33
2022-08-07T05:35:14.503Z,95230.64
2022-08-07T05:37:46.841Z,95168.30
2022-08-07T05:40:25.532Z,95231.57
2022-08-07T05:43:00.910Z,95232.89
2022-08-07T05:45:48.332Z,95242.27
2022-08-07T05:48:18.224Z,95243.97
2022-08-07T05:50:54.413Z,95252.70
2022-08-07T05:54:12.900Z,95258.53
2022-08-07T05:56:16.178Z,95266.86
2022-08-07T05:58:58.878Z,95270.55
2022-08-07T06:01:34.960Z,95275.84
2022-08-07T06:04:06.606Z,95279.56
2022-08-07T06:06:56.411Z,95276.92
2022-08-07T06:12:31.809Z,95279.67
2022-08-07T06:14:58.782Z,95278.75
2022-08-07T06:17:53.658Z,95277.55
2022-08-07T06:20:27.309Z,95278.38
2022-08-07T06:23:24.677Z,95283.20
2022-08-07T06:25:34.735Z,95285.77
2022-08-07T06:28:16.630Z,95281.85
2022-08-07T06:30:52.980Z,95280.52
2022-08-07T06:33:19.737Z,95283.58
2022-08-07T06:36:12.138Z,95282.92
2022-08-07T06:38:22.345Z,95281.70
2022-08-07T06:40:57.432Z,95278.33
2022-08-07T06:43:27.523Z,95283.98
2022-08-07T06:46:00.958Z,95280.00
2022-08-07T06:48:29.835Z,95276.97
2022-08-07T06:51:08.153Z,95274.61
2022-08-07T06:55:29.876Z,95277.75
2022-08-07T06:56:07.514Z,95273.59
2022-08-07T07:00:12.870Z,95273.03
2022-08-07T07:01:20.914Z,95271.55
2022-08-07T07:03:57.238Z,95273.75
2022-08-07T07:06:31.656Z,95277.53
2022-08-07T07:09:24.209Z,95279.81
2022-08-07T07:12:16.835Z,95278.14
2022-08-07T07:14:50.511Z,95269.34
2022-08-07T07:17:39.515Z,95271.75
2022-08-07T07:20:17.501Z,95272.80
2022-08-07T07:24:06.331Z,95278.19
2022-08-07T07:26:32.620Z,95270.88
2022-08-07T07:28:42.473Z,95274.78
2022-08-07T07:30:49.277Z,95284.42
2022-08-07T07:33:20.902Z,95273.23
2022-08-07T07:36:04.450Z,95280.08
2022-08-07T07:38:30.580Z,95278.93
2022-08-07T07:41:04.079Z,95281.67
2022-08-07T07:44:14.231Z,95287.84
2022-08-07T07:46:36.989Z,95280.78
2022-08-07T07:48:39.879Z,95275.73
2022-08-07T07:51:12.745Z,95283.56
2022-08-07T07:53:52.543Z,95266.48
2022-08-07T07:56:18.499Z,95288.75
2022-08-07T07:58:51.188Z,95286.09
2022-08-07T08:02:02.743Z,95285.44
2022-08-07T08:04:11.127Z,95296.56
2022-08-07T08:07:59.790Z,95300.02
2022-08-07T08:16:25.880Z,95299.50
2022-08-07T08:20:17.445Z,95303.12
2022-08-07T08:22:05.481Z,95295.77
2022-08-07T08:25:04.866Z,95304.27
2022-08-07T08:27:33.597Z,95303.86
2022-08-07T08:30:19.471Z,95300.98
2022-08-07T08:32:54.944Z,95297.36
2022-08-07T08:35:39.102Z,95300.77
2022-08-07T08:38:06.680Z,95298.52
2022-08-07T08:40:59.092Z,95303.86
2022-08-07T08:43:56.118Z,95302.21
2022-08-07T08:46:40.113Z,95301.60
2022-08-07T08:50:04.793Z,95296.73
2022-08-07T08:55:54.608Z,95299.08
2022-08-07T09:02:08.704Z,95291.13
2022-08-07T09:04:51.458Z,95296.94
2022-08-07T09:07:57.780Z,95295.55
2022-08-07T09:10:25.342Z,95292.15
2022-08-07T09:13:45.977Z,95287.91
2022-08-07T09:16:30.129Z,95285.23
2022-08-07T09:18:59.034Z,95282.81
2022-08-07T09:21:57.821Z,95284.88
2022-08-07T09:24:58.879Z,95277.17
2022-08-07T09:27:30.329Z,95286.23
2022-08-07T09:30:09.005Z,95288.38
2022-08-07T09:32:56.527Z,95266.73
2022-08-07T09:36:03.370Z,95268.51
2022-08-07T09:38:21.098Z,95262.84
2022-08-07T09:41:14.552Z,95257.83
2022-08-07T09:44:10.222Z,95267.25
2022-08-07T09:47:52.127Z,95258.80
2022-08-07T09:50:19.310Z,95248.69
2022-08-07T09:52:54.060Z,95256.56
2022-08-07T09:56:02.875Z,95263.47
2022-08-07T09:58:32.587Z,95260.63
2022-08-07T10:04:53.427Z,95247.16
2022-08-07T10:07:58.129Z,95241.30
2022-08-07T10:14:00.166Z,95245.23
2022-08-07T10:16:34.894Z,95243.48
2022-08-07T10:19:11.284Z,95235.02
2022-08-07T10:22:15.368Z,95229.48
2022-08-07T10:25:07.006Z,95237.23
2022-08-07T10:28:15.377Z,95226.34
2022-08-07T10:30:58.526Z,95224.15
2022-08-07T10:34:05.601Z,95228.02
2022-08-07T10:36:42.775Z,95226.30
2022-08-07T10:39:41.837Z,95227.45
2022-08-07T10:42:21.036Z,95238.46
2022-08-07T10:45:12.818Z,95233.44
2022-08-07T10:47:55.858Z,95246.34
2022-08-07T10:50:32.352Z,95239.30
2022-08-07T10:56:43.700Z,95225.72
2022-08-07T11:00:04.177Z,95235.84
2022-08-07T11:06:21.809Z,95236.97
2022-08-07T11:15:54.375Z,95242.34
2022-08-07T11:18:51.023Z,95228.70
2022-08-07T11:30:18.179Z,95237.84
2022-08-07T11:31:37.288Z,95222.50
2022-08-07T11:34:59.209Z,95180.14
2022-08-07T11:38:28.181Z,95246.75
2022-08-07T11:42:02.092Z,95251.69
2022-08-07T11:45:53.068Z,95243.78
2022-08-07T11:47:58.845Z,95253.36
2022-08-07T11:50:56.384Z,95253.77
2022-08-07T11:53:38.114Z,95255.73
2022-08-07T11:56:36.890Z,95257.56
2022-08-07T12:00:12.089Z,95253.19
2022-08-07T12:02:33.715Z,95250.89
2022-08-07T12:05:08.989Z,95244.28
2022-08-07T12:07:53.660Z,95238.66
2022-08-07T12:10:48.431Z,95241.90
2022-08-07T12:13:47.760Z,95248.24
2022-08-07T12:16:30.709Z,95255.66
2022-08-07T12:19:21.250Z,95252.30
2022-08-07T12:22:39.009Z,95253.24
2022-08-07T12:26:21.817Z,95253.71
2022-08-07T12:31:00.698Z,95253.97
2022-08-07T12:34:00.846Z,95245.00
2022-08-07T12:40:04.143Z,95234.55
2022-08-07T12:42:13.642Z,95224.88
2022-08-07T12:48:00.269Z,95220.94
2022-08-07T12:50:55.613Z,95219.70
2022-08-07T12:54:24.449Z,95223.05
2022-08-07T12:59:54.625Z,95218.59
2022-08-07T13:03:07.057Z,95214.70
2022-08-07T13:06:03.087Z,95207.00
2022-08-07T13:08:59.654Z,95208.02
2022-08-07T13:15:23.641Z,95205.23
2022-08-07T13:17:59.456Z,95198.38
2022-08-07T13:20:44.563Z,95198.96
2022-08-07T13:24:00.635Z,95202.44
2022-08-07T13:26:10.566Z,95197.94
2022-08-07T13:28:44.582Z,95198.25
2022-08-07T13:31:22.307Z,95192.06
2022-08-07T13:34:30.086Z,95193.86
2022-08-07T13:36:48.597Z,95187.11
2022-08-07T13:40:35.354Z,95186.89
2022-08-07T13:42:40.031Z,95185.37
2022-08-07T13:45:40.640Z,95190.30
2022-08-07T13:48:06.149Z,95196.23
2022-08-07T13:50:32.842Z,95190.94
2022-08-07T13:52:54.029Z,95190.14
2022-08-07T13:55:26.264Z,95200.91
2022-08-07T13:58:31.352Z,95189.80
2022-08-07T14:01:08.815Z,95188.91
2022-08-07T14:04:07.329Z,95197.96
2022-08-07T14:06:08.645Z,95192.56
2022-08-07T14:08:46.153Z,95194.91
2022-08-07T14:11:21.603Z,95187.64
2022-08-07T14:13:58.151Z,95186.16
2022-08-07T14:16:41.394Z,95193.66
2022-08-07T14:20:39.922Z,95201.92
2022-08-07T14:22:12.551Z,95196.20
2022-08-07T14:24:43.005Z,95196.54
2022-08-07T14:28:09.881Z,95200.45
2022-08-07T14:30:05.288Z,95200.15
2022-08-07T14:32:26.893Z,95200.05
2022-08-07T14:35:04.434Z,95208.55
2022-08-07T14:37:39.236Z,95206.36
2022-08-07T14:41:34.177Z,95204.37
2022-08-07T14:43:57.699Z,95194.47
2022-08-07T14:46:03.978Z,95195.72
2022-08-07T14:49:17.318Z,95194.89
2022-08-07T14:52:04.679Z,95195.88
2022-08-07T14:54:31.630Z,95198.77
2022-08-07T14:56:56.724Z,95195.64
2022-08-07T15:00:05.215Z,95195.78
2022-08-07T15:02:32.119Z,95192.43
2022-08-07T15:04:53.199Z,95189.55
2022-08-07T15:10:12.115Z,95190.15
2022-08-07T15:16:10.872Z,95177.65
2022-08-07T15:18:53.122Z,95184.13
2022-08-07T15:28:02.068Z,95181.47
2022-08-07T15:33:04.134Z,95171.16
2022-08-07T15:38:51.711Z,95176.97
2022-08-07T15:44:03.948Z,95186.50
2022-08-07T15:46:49.992Z,95185.88
2022-08-07T15:49:17.615Z,95182.17
2022-08-07T15:54:20.687Z,95191.05
2022-08-07T15:56:52.366Z,95191.50
2022-08-07T15:59:39.762Z,95194.86
2022-08-07T16:02:02.248Z,95198.11
2022-08-07T16:04:32.245Z,95201.41
2022-08-07T16:07:04.778Z,95199.54
2022-08-07T16:09:45.672Z,95202.45
2022-08-07T16:12:38.946Z,95202.54
2022-08-07T16:15:55.578Z,95197.73
2022-08-07T16:18:50.206Z,95204.62
2022-08-07T16:22:02.303Z,95203.08
2022-08-07T16:24:09.254Z,95210.38
2022-08-07T16:27:17.931Z,95208.05
2022-08-07T16:30:11.592Z,95210.93
2022-08-07T16:32:32.988Z,95200.17
2022-08-07T16:35:03.660Z,95210.53
2022-08-07T16:38:05.811Z,95213.80
2022-08-07T16:41:01.602Z,95212.91
2022-08-07T16:44:06.046Z,95212.55
2022-08-07T16:50:27.291Z,95214.97
2022-08-07T16:52:01.582Z,95222.59
2022-08-07T16:54:33.033Z,95217.28
2022-08-07T16:58:01.063Z,95217.61
2022-08-07T17:00:15.125Z,95225.14
2022-08-07T17:03:06.074Z,95233.10
2022-08-07T17:06:30.245Z,95246.88
2022-08-07T17:09:10.448Z,95246.27
2022-08-07T17:12:05.170Z,95257.70
2022-08-07T17:14:22.245Z,95268.74
2022-08-07T17:16:55.644Z,95269.15
2022-08-07T17:20:03.497Z,95275.45
2022-08-07T17:22:36.626Z,95280.48
2022-08-07T17:24:56.496Z,95284.11
2022-08-07T17:27:51.078Z,95285.19
2022-08-07T17:31:00.769Z,95287.45
2022-08-07T17:34:09.428Z,95289.73
2022-08-07T17:39:17.139Z,95282.93
2022-08-07T17:42:26.064Z,95288.51
2022-08-07T17:45:04.754Z,95294.59
2022-08-07T17:47:54.181Z,95289.59
2022-08-07T17:54:53.620Z,95297.94
2022-08-07T17:57:00.232Z,95291.52
2022-08-07T17:59:39.664Z,95295.50
2022-08-07T18:02:23.596Z,95301.30
2022-08-07T18:04:55.544Z,95284.09
2022-08-07T18:07:36.230Z,95310.77
2022-08-07T18:10:32.754Z,95314.16
2022-08-07T18:13:09.883Z,95316.28
2022-08-07T18:15:53.525Z,95323.70
2022-08-07T18:18:45.130Z,95334.22
2022-08-07T18:21:42.131Z,95340.92
2022-08-07T18:23:50.789Z,95334.27
2022-08-07T18:26:20.975Z,95340.03
2022-08-07T18:30:08.246Z,95356.14
2022-08-07T18:31:59.402Z,95356.12
2022-08-07T18:35:07.975Z,95364.74
2022-08-07T18:38:59.262Z,95365.82
2022-08-07T18:44:00.252Z,95362.16
2022-08-07T18:46:36.911Z,95385.36
2022-08-07T18:55:43.136Z,95377.35
2022-08-07T19:02:18.092Z,95387.80
2022-08-07T19:05:09.819Z,95383.27
2022-08-07T19:07:51.973Z,95396.16
2022-08-07T19:10:51.835Z,95399.33
2022-08-07T19:13:34.047Z,95405.55
2022-08-07T19:17:04.781Z,95409.63
2022-08-07T19:19:36.773Z,95401.45
2022-08-07T19:22:18.626Z,95397.35
2022-08-07T19:24:55.988Z,95411.00
2022-08-07T19:28:29.492Z,95414.48
2022-08-07T19:31:00.841Z,95407.66
2022-08-07T19:32:44.575Z,95346.94
2022-08-07T19:35:12.175Z,95409.46
2022-08-07T19:37:55.123Z,95417.67
2022-08-07T19:40:30.769Z,95415.38
2022-08-07T19:43:05.770Z,95413.29
2022-08-07T19:46:07.874Z,95410.25
2022-08-07T19:51:51.163Z,95414.91
2022-08-07T19:54:34.266Z,95416.13
2022-08-07T19:57:52.348Z,95388.73
2022-08-07T19:59:41.169Z,95406.44
2022-08-07T20:02:12.357Z,95404.78
2022-08-07T20:04:52.046Z,95406.00
2022-08-07T20:07:46.015Z,95403.09
2022-08-07T20:10:35.745Z,95364.36
2022-08-07T20:13:05.904Z,95397.52
2022-08-07T20:15:58.449Z,95403.00
2022-08-07T20:18:36.857Z,95406.30
2022-08-07T20:21:21.103Z,95399.21
2022-08-07T20:23:58.015Z,95392.18
2022-08-07T20:26:45.141Z,95401.42
2022-08-07T20:29:17.074Z,95391.84
2022-08-07T20:34:51.362Z,95394.86
2022-08-07T20:37:18.762Z,95388.19
2022-08-07T20:40:02.634Z,95398.79
2022-08-07T20:42:33.738Z,95400.91
2022-08-07T20:45:32.197Z,95404.84
2022-08-07T20:47:56.852Z,95403.44
2022-08-07T20:50:26.847Z,95395.84
2022-08-07T20:53:01.721Z,95400.84
2022-08-07T20:55:37.150Z,95406.74
2022-08-07T21:01:09.077Z,95413.83
2022-08-07T21:04:07.199Z,95412.86
2022-08-07T21:06:26.046Z,95409.53
2022-08-07T21:08:59.442Z,95404.39
2022-08-07T21:11:49.986Z,95406.15
2022-08-07T21:14:33.643Z,95410.80
2022-08-07T21:18:00.385Z,95402.69
2022-08-07T21:19:51.483Z,95404.13
2022-08-07T21:22:14.801Z,95405.32
2022-08-07T21:24:49.635Z,95406.23
2022-08-07T21:27:39.803Z,95406.30
2022-08-07T21:30:10.931Z,95407.69
2022-08-07T21:33:00.607Z,95409.39
2022-08-07T21:36:05.718Z,95413.58
2022-08-07T21:38:29.000Z,95404.44
2022-08-07T21:41:08.196Z,95412.48
2022-08-07T21:43:56.332Z,95409.02
2022-08-07T21:46:25.278Z,95414.46
2022-08-07T21:49:25.747Z,95408.95
2022-08-07T21:52:13.632Z,95408.00
2022-08-07T21:54:50.043Z,95407.28
2022-08-07T21:57:51.828Z,95408.90
2022-08-07T22:00:25.703Z,95408.95
2022-08-07T22:03:03.620Z,95414.78
2022-08-07T22:05:44.210Z,95417.66
2022-08-07T22:08:26.693Z,95422.98
2022-08-07T22:11:01.910Z,95419.69
2022-08-07T22:13:51.283Z,95414.39
2022-08-07T22:21:02.530Z,95417.55
2022-08-07T22:22:44.747Z,95417.63
2022-08-07T22:25:43.087Z,95417.30
2022-08-07T22:28:35.252Z,95415.02
2022-08-07T22:31:45.263Z,95417.42
2022-08-07T22:33:57.133Z,95414.30
2022-08-07T22:36:52.714Z,95420.04
2022-08-07T22:39:29.460Z,95426.52
2022-08-07T22:42:32.766Z,95422.00
2022-08-07T22:45:10.949Z,95426.89
2022-08-07T22:47:49.280Z,95425.41
2022-08-07T22:50:41.820Z,95428.17
2022-08-07T22:54:06.276Z,95433.00
2022-08-07T22:56:15.846Z,95428.78
2022-08-07T22:59:07.682Z,95432.25
2022-08-07T23:01:51.478Z,95437.97
2022-08-07T23:04:35.496Z,95437.97
2022-08-07T23:07:40.326Z,95429.98
2022-08-07T23:10:04.785Z,95432.03
2022-08-07T23:12:35.669Z,95430.36
2022-08-07T23:16:05.857Z,95431.59
2022-08-07T23:18:32.362Z,95433.17
2022-08-07T23:21:36.782Z,95440.09
2022-08-07T23:24:28.116Z,95436.48
2022-08-07T23:27:33.668Z,95440.12
2022-08-07T23:30:38.748Z,95442.25
2022-08-07T23:34:23.416Z,95436.84
2022-08-07T23:35:42.550Z,95433.87
2022-08-07T23:38:42.440Z,95432.35
2022-08-07T23:41:33.494Z,95429.57
2022-08-07T23:44:29.747Z,95426.70
2022-08-07T23:47:19.955Z,95431.98
2022-08-07T23:50:11.931Z,95438.53
2022-08-07T23:53:16.613Z,95433.95
2022-08-07T23:55:52.464Z,95434.89
2022-08-07T23:58:25.466Z,95430.83
